KAVL/AVL METAR and TAF weather

Enter ICAO airport designator
Station Type Date Time Source
KAVL METAR 2018/12/13 14:54 UTC NOAA

KAVL 131454Z 00000KT 10SM BKN085 02/M02 A3025 RMK AO2 SLP252 T00171022 51017


Station Type Date Time Source
KAVL Decoded METAR 2018/12/13 14:54 UTC NOAA

ASHEVILLE REGIONAL AIRPORT, NC, United States (KAVL) 35-26N 82-32W 670M
Dec 13, 2018 - 09:54 AM EST / 2018.12.13 1454 UTC
Wind: Calm:0
Visibility: 10 mile(s):0
Sky conditions: mostly cloudy
Temperature: 35.1 F (1.7 C)
Dew Point: 28.0 F (-2.2 C)
Relative Humidity: 75%
Pressure (altimeter): 30.25 in. Hg (1024 hPa)
Pressure tendency: 0.05 inches (1.7 hPa) higher than three hours ago
ob: KAVL 131454Z 00000KT 10SM BKN085 02/M02 A3025 RMK AO2 SLP252 T00171022 51017
cycle: 15

Station Type Date Time Source
KAVL TAF 2018/12/13 12:39 UTC NOAA

TAF KAVL 131137Z 1312/1412 00000KT P6SM BKN090
FM131500 16005KT P6SM BKN140
FM140200 16004KT P6SM OVC050
FM140700 15004KT P6SM -SHRA OVC028
FM140900 15005KT 3SM SHRA BR OVC011
FM141000 16005KT 3SM SHRA BR OVC009


Example: see airport list